Time;durP1;ratioP1;P1;durP2;ratioP2;P2;SDS_P1;SDS_P2;PMS_P1;PMS_P2;Temp;Humidity;BMP_temperature;BMP_pressure;BME280_temperature;BME280_humidity;BME280_pressure;Samples;Min_cycle;Max_cycle;Signal;HPM_P1;HPM_P2
2023/08/03 04:01:31;;;;;;;1.60;1.50;;;16.10;99.90;;;;;;5348718;23;21061;-69
2023/08/03 04:03:58;;;;;;;0.70;0.70;;;16.10;99.90;;;;;;4895788;29;20467;-72
2023/08/03 04:06:24;;;;;;;0.60;0.60;;;16.10;99.90;;;;;;4887092;29;20477;-73
2023/08/03 04:08:51;;;;;;;4.00;0.80;;;16.20;99.90;;;;;;4897482;29;20829;-72
2023/08/03 04:11:18;;;;;;;0.80;0.50;;;16.20;99.90;;;;;;4895739;29;20491;-71
2023/08/03 04:13:44;;;;;;;0.63;0.63;;;16.20;99.90;;;;;;4871289;29;21001;-71
2023/08/03 04:16:11;;;;;;;1.00;1.00;;;16.20;99.90;;;;;;4881260;29;20492;-72
2023/08/03 04:18:39;;;;;;;0.60;0.60;;;16.10;99.90;;;;;;4885320;29;20877;-71
2023/08/03 04:21:06;;;;;;;0.77;0.77;;;16.10;99.90;;;;;;4926356;23;20623;-69
2023/08/03 04:23:32;;;;;;;0.70;0.70;;;16.00;99.90;;;;;;4889164;29;20475;-68
2023/08/03 04:25:59;;;;;;;0.87;0.87;;;16.00;99.90;;;;;;4895322;29;21001;-70
2023/08/03 04:28:26;;;;;;;0.60;0.60;;;15.90;99.90;;;;;;4901660;29;20944;-70
2023/08/03 04:30:52;;;;;;;2.87;0.80;;;16.00;99.90;;;;;;4886790;29;20513;-69
2023/08/03 04:33:19;;;;;;;0.50;0.50;;;15.90;99.90;;;;;;4885756;29;20471;-69
2023/08/03 04:35:47;;;;;;;3.90;0.80;;;15.90;99.90;;;;;;4889186;29;20494;-69
2023/08/03 04:38:14;;;;;;;1.03;1.03;;;15.90;99.90;;;;;;4900436;29;20483;-69
2023/08/03 04:40:40;;;;;;;1.27;1.07;;;15.90;99.90;;;;;;4890571;29;20487;-71
2023/08/03 04:43:07;;;;;;;0.77;0.77;;;15.90;99.90;;;;;;4895770;29;20473;-69
2023/08/03 04:45:34;;;;;;;0.60;0.60;;;15.90;99.90;;;;;;4897492;29;20459;-69
2023/08/03 04:48:01;;;;;;;5.50;0.70;;;15.90;99.90;;;;;;4898555;29;20475;-69
2023/08/03 04:50:28;;;;;;;4.73;0.93;;;15.90;99.90;;;;;;4898790;29;20494;-69
2023/08/03 04:52:56;;;;;;;1.10;1.10;;;15.90;99.90;;;;;;4900870;29;20506;-69
2023/08/03 04:55:22;;;;;;;0.57;0.57;;;15.90;99.90;;;;;;4907599;29;20493;-70
2023/08/03 04:57:49;;;;;;;0.57;0.57;;;15.90;99.90;;;;;;4894893;29;20762;-69
2023/08/03 05:00:16;;;;;;;1.57;0.73;;;15.90;99.90;;;;;;4901360;29;21183;-68
2023/08/03 05:02:42;;;;;;;0.70;0.70;;;15.90;99.90;;;;;;4899489;29;20938;-69
2023/08/03 05:05:09;;;;;;;1.03;0.93;;;15.90;99.90;;;;;;4892288;29;20527;-69
2023/08/03 05:07:36;;;;;;;0.30;0.30;;;15.90;99.90;;;;;;4897773;29;20491;-68
2023/08/03 05:10:04;;;;;;;0.80;0.80;;;15.90;99.90;;;;;;4901484;29;20495;-69
2023/08/03 05:12:31;;;;;;;0.50;0.50;;;15.90;99.90;;;;;;4899173;29;20474;-69
2023/08/03 05:14:58;;;;;;;0.47;0.47;;;15.90;99.90;;;;;;4901021;29;21022;-69
2023/08/03 05:17:24;;;;;;;1.13;1.13;;;15.90;99.90;;;;;;4900648;29;20491;-69
2023/08/03 05:19:51;;;;;;;0.40;0.40;;;15.90;99.90;;;;;;4901543;29;20482;-69
2023/08/03 05:22:18;;;;;;;1.60;0.43;;;15.90;99.90;;;;;;4895344;29;20480;-69
2023/08/03 05:24:44;;;;;;;0.37;0.37;;;15.90;99.90;;;;;;4892429;29;20471;-69
2023/08/03 05:27:12;;;;;;;0.30;0.30;;;15.90;99.90;;;;;;4897322;29;20972;-69
2023/08/03 05:29:42;;;;;;;1.10;1.10;;;15.90;99.90;;;;;;4894633;29;20809;-69
2023/08/03 05:32:09;;;;;;;1.33;0.67;;;16.00;99.90;;;;;;4893014;29;20817;-69
2023/08/03 05:34:36;;;;;;;7.13;1.30;;;16.00;99.90;;;;;;4905368;29;20534;-69
2023/08/03 05:37:02;;;;;;;0.57;0.57;;;16.00;99.90;;;;;;4899318;29;20486;-68
2023/08/03 05:39:29;;;;;;;0.40;0.40;;;16.00;99.90;;;;;;4902032;29;20704;-70
2023/08/03 05:41:56;;;;;;;0.70;0.70;;;16.00;99.90;;;;;;4886854;29;20495;-69
2023/08/03 05:44:24;;;;;;;0.50;0.50;;;16.00;99.90;;;;;;4899001;29;20480;-68
2023/08/03 05:46:51;;;;;;;0.60;0.60;;;16.10;99.90;;;;;;4892572;29;21167;-68
2023/08/03 05:49:17;;;;;;;0.30;0.30;;;16.20;99.90;;;;;;4908129;29;20838;-70
2023/08/03 05:51:44;;;;;;;3.80;0.53;;;16.20;99.90;;;;;;4892266;29;20977;-69
2023/08/03 05:54:19;;;;;;;0.57;0.57;;;16.20;99.90;;;;;;4904004;29;20957;-69
2023/08/03 05:56:46;;;;;;;0.50;0.50;;;16.20;99.90;;;;;;4895716;29;20498;-70
2023/08/03 05:59:18;;;;;;;0.40;0.30;;;16.20;99.90;;;;;;4893513;29;20475;-70
2023/08/03 06:01:48;;;;;;;0.50;0.50;;;16.20;99.90;;;;;;4894731;29;20499;-69
2023/08/03 06:04:16;;;;;;;0.40;0.40;;;16.20;99.90;;;;;;4897765;29;20918;-70
2023/08/03 06:06:43;;;;;;;0.20;0.20;;;16.20;99.90;;;;;;4895954;29;20491;-70
2023/08/03 06:09:11;;;;;;;0.40;0.40;;;16.10;99.90;;;;;;4894978;29;20820;-70
2023/08/03 06:11:38;;;;;;;0.60;0.60;;;16.20;99.90;;;;;;4898398;29;20491;-70
2023/08/03 06:14:06;;;;;;;0.47;0.47;;;16.20;99.90;;;;;;4901187;29;20475;-69
2023/08/03 06:16:33;;;;;;;0.20;0.20;;;16.20;99.90;;;;;;4897534;29;20566;-69
2023/08/03 06:19:01;;;;;;;1.10;1.10;;;16.20;99.90;;;;;;4894446;29;20475;-69
2023/08/03 06:21:29;;;;;;;2.20;0.73;;;16.20;99.90;;;;;;4903541;29;21052;-68
2023/08/03 06:23:57;;;;;;;0.50;0.50;;;16.20;99.90;;;;;;4901866;29;20478;-68
2023/08/03 06:26:25;;;;;;;0.47;0.47;;;16.30;99.90;;;;;;4897996;29;20472;-70
2023/08/03 06:28:54;;;;;;;2.77;0.90;;;16.30;99.90;;;;;;4891570;29;20482;-69
2023/08/03 06:31:24;;;;;;;0.87;0.87;;;16.40;99.90;;;;;;4901839;29;20498;-69
2023/08/03 06:33:51;;;;;;;0.83;0.83;;;16.50;99.90;;;;;;4900124;29;20804;-70
2023/08/03 06:36:20;;;;;;;0.60;0.60;;;16.50;99.90;;;;;;4894761;29;20543;-69
2023/08/03 06:38:47;;;;;;;1.00;1.00;;;16.50;99.90;;;;;;4891080;29;20482;-69
2023/08/03 06:41:14;;;;;;;0.80;0.80;;;16.50;99.90;;;;;;4896982;29;20495;-69
2023/08/03 06:43:41;;;;;;;1.17;1.07;;;16.50;99.90;;;;;;4906498;29;20483;-68
2023/08/03 06:46:07;;;;;;;1.20;1.20;;;16.50;99.90;;;;;;4903383;29;20479;-69
2023/08/03 06:48:35;;;;;;;0.93;0.93;;;16.60;99.90;;;;;;4896909;29;20475;-69
2023/08/03 06:51:02;;;;;;;0.90;0.90;;;16.60;99.90;;;;;;4911693;29;20509;-68
2023/08/03 06:53:31;;;;;;;0.77;0.77;;;16.80;99.90;;;;;;4900474;29;20497;-69
2023/08/03 06:55:58;;;;;;;0.63;0.63;;;16.80;99.90;;;;;;4901339;29;20502;-70
2023/08/03 06:58:25;;;;;;;1.47;1.37;;;16.80;99.90;;;;;;4900923;29;20479;-70
2023/08/03 07:00:52;;;;;;;1.13;1.13;;;16.90;99.90;;;;;;4896701;29;20507;-69
2023/08/03 07:03:18;;;;;;;0.83;0.83;;;16.90;99.90;;;;;;4899066;29;20567;-70
2023/08/03 07:05:45;;;;;;;1.27;0.80;;;17.00;99.90;;;;;;4893115;29;20475;-69
2023/08/03 07:08:12;;;;;;;0.60;0.60;;;17.00;99.90;;;;;;4898892;29;20814;-69
2023/08/03 07:10:41;;;;;;;0.80;0.80;;;17.00;99.90;;;;;;4903386;29;21039;-69
2023/08/03 07:13:08;;;;;;;1.13;1.13;;;16.90;99.90;;;;;;4893988;29;21016;-69
2023/08/03 07:15:35;;;;;;;0.47;0.47;;;16.80;99.90;;;;;;4894222;29;20479;-69
2023/08/03 07:18:03;;;;;;;0.70;0.70;;;16.80;99.90;;;;;;4895029;29;20476;-70
2023/08/03 07:20:30;;;;;;;1.47;1.47;;;16.80;99.90;;;;;;4895942;29;20502;-69
2023/08/03 07:22:56;;;;;;;0.67;0.67;;;16.70;99.90;;;;;;4898075;29;20474;-68
2023/08/03 07:25:23;;;;;;;0.90;0.90;;;16.70;99.90;;;;;;4902464;29;20561;-71
2023/08/03 07:27:51;;;;;;;0.90;0.90;;;16.70;99.90;;;;;;4905170;29;20487;-70
2023/08/03 07:30:18;;;;;;;0.77;0.77;;;16.80;99.90;;;;;;4902936;29;20495;-70
2023/08/03 07:32:45;;;;;;;3.50;0.90;;;16.90;99.90;;;;;;4897755;29;20570;-69
2023/08/03 07:35:11;;;;;;;1.00;1.00;;;17.00;99.90;;;;;;4894618;29;20463;-70
2023/08/03 07:37:38;;;;;;;1.57;1.47;;;17.00;99.90;;;;;;4894641;29;20502;-69
2023/08/03 07:40:07;;;;;;;1.33;1.33;;;17.10;99.90;;;;;;4899951;29;20495;-69
2023/08/03 07:42:34;;;;;;;0.90;0.90;;;17.10;99.90;;;;;;4894473;29;20502;-69
2023/08/03 07:45:02;;;;;;;1.20;1.20;;;17.10;99.90;;;;;;4895703;29;20526;-70
2023/08/03 07:47:30;;;;;;;5.10;1.73;;;17.00;99.90;;;;;;4895316;29;20570;-70
2023/08/03 07:49:57;;;;;;;2.10;1.43;;;17.10;99.90;;;;;;4897704;29;20502;-69
2023/08/03 07:52:24;;;;;;;1.00;1.00;;;17.20;99.90;;;;;;4898756;29;20901;-69
2023/08/03 07:54:50;;;;;;;1.27;1.27;;;17.20;99.90;;;;;;4895771;29;20804;-69
2023/08/03 07:57:17;;;;;;;1.23;1.23;;;17.20;99.90;;;;;;4901911;29;20526;-69
2023/08/03 07:59:48;;;;;;;1.00;1.00;;;17.30;99.90;;;;;;4899655;29;20472;-69
2023/08/03 08:02:16;;;;;;;0.87;0.87;;;17.20;99.90;;;;;;4898758;29;20536;-70
2023/08/03 08:04:42;;;;;;;1.27;1.27;;;17.20;99.90;;;;;;4890006;29;20814;-70
2023/08/03 08:07:09;;;;;;;1.13;1.13;;;17.20;99.90;;;;;;4903304;29;20794;-71
2023/08/03 08:09:36;;;;;;;1.03;1.03;;;17.30;99.90;;;;;;4893177;29;20886;-69
2023/08/03 08:12:02;;;;;;;1.30;1.30;;;17.20;99.90;;;;;;4892559;29;20467;-69
2023/08/03 08:14:29;;;;;;;0.87;0.87;;;17.20;99.90;;;;;;4891933;29;20996;-70
2023/08/03 08:16:56;;;;;;;0.87;0.87;;;17.20;99.90;;;;;;4893861;29;20600;-69
2023/08/03 08:19:24;;;;;;;1.23;1.23;;;17.10;99.90;;;;;;4892034;29;21042;-70
2023/08/03 08:21:50;;;;;;;1.43;1.43;;;17.20;99.90;;;;;;4890491;29;21007;-68
2023/08/03 08:24:17;;;;;;;1.37;1.37;;;17.20;99.90;;;;;;4890134;29;20463;-70
2023/08/03 08:26:45;;;;;;;2.90;1.20;;;17.30;99.90;;;;;;4880761;29;20531;-69
2023/08/03 08:29:12;;;;;;;1.77;1.77;;;17.40;99.90;;;;;;4899072;29;20562;-69
2023/08/03 08:31:39;;;;;;;1.50;1.50;;;17.50;99.90;;;;;;4906859;29;20986;-69
2023/08/03 08:34:05;;;;;;;1.73;1.73;;;17.60;99.90;;;;;;4903796;29;20498;-70
2023/08/03 08:36:33;;;;;;;2.00;0.93;;;17.70;99.90;;;;;;4906410;29;20486;-69
2023/08/03 08:39:00;;;;;;;1.40;1.40;;;17.90;99.90;;;;;;4902896;29;20478;-70
2023/08/03 08:41:26;;;;;;;2.60;2.60;;;18.00;99.90;;;;;;4895910;29;20490;-69
2023/08/03 08:43:53;;;;;;;2.13;2.07;;;18.20;99.90;;;;;;4887020;29;20963;-69
2023/08/03 08:46:20;;;;;;;1.73;1.70;;;18.70;99.90;;;;;;4892090;29;20472;-69
2023/08/03 08:48:46;;;;;;;1.60;1.60;;;18.60;99.90;;;;;;4905971;29;20557;-68
2023/08/03 08:51:14;;;;;;;1.80;1.80;;;18.80;99.90;;;;;;4894804;29;20491;-69
2023/08/03 08:53:42;;;;;;;1.63;1.63;;;18.90;99.90;;;;;;4886493;29;20580;-67
2023/08/03 08:56:09;;;;;;;1.50;1.37;;;19.10;99.90;;;;;;4903016;29;20472;-68
2023/08/03 08:58:36;;;;;;;2.57;1.90;;;19.30;99.90;;;;;;4898217;29;20472;-68
2023/08/03 09:01:06;;;;;;;1.90;1.90;;;19.20;99.90;;;;;;4894719;29;20480;-68
2023/08/03 09:03:51;;;;;;;2.67;2.57;;;19.40;99.90;;;;;;4892792;29;20557;-68
2023/08/03 09:06:19;;;;;;;1.70;1.70;;;19.50;99.90;;;;;;4897462;29;20472;-68
2023/08/03 09:08:55;;;;;;;2.30;1.83;;;19.70;99.90;;;;;;4918123;29;20567;-69
2023/08/03 09:11:37;;;;;;;1.60;1.60;;;19.90;99.90;;;;;;4917988;29;20527;-68
2023/08/03 09:14:05;;;;;;;1.63;1.63;;;20.10;99.90;;;;;;4906657;29;20481;-68
2023/08/03 09:16:32;;;;;;;3.00;1.60;;;20.20;99.90;;;;;;4905530;29;20992;-68
2023/08/03 09:18:58;;;;;;;1.83;1.73;;;20.20;99.90;;;;;;4914997;29;20469;-71
2023/08/03 09:21:25;;;;;;;1.80;1.80;;;20.20;99.90;;;;;;4900561;29;20938;-69
2023/08/03 09:23:54;;;;;;;2.00;2.00;;;20.00;99.90;;;;;;4899727;29;20474;-71
2023/08/03 09:26:23;;;;;;;1.90;1.90;;;20.00;99.90;;;;;;4907733;29;20523;-71
2023/08/03 09:28:50;;;;;;;2.10;2.10;;;20.00;99.90;;;;;;4907575;29;20568;-69
2023/08/03 09:31:24;;;;;;;1.63;1.63;;;20.20;99.90;;;;;;4900315;29;20497;-69
2023/08/03 09:33:58;;;;;;;2.70;1.57;;;20.20;99.90;;;;;;4895108;29;21009;-70
2023/08/03 09:36:26;;;;;;;2.00;2.00;;;20.20;99.90;;;;;;4896610;29;20482;-69
2023/08/03 09:39:10;;;;;;;1.07;1.07;;;20.30;99.90;;;;;;4911292;29;20468;-71
2023/08/03 09:41:37;;;;;;;1.07;1.07;;;20.30;99.90;;;;;;4905767;29;20569;-69
2023/08/03 09:44:07;;;;;;;1.33;1.33;;;20.20;99.90;;;;;;4903605;29;20582;-69
2023/08/03 09:46:35;;;;;;;1.20;1.20;;;20.00;99.90;;;;;;4905797;29;20556;-69
2023/08/03 09:49:02;;;;;;;1.30;1.30;;;20.00;99.90;;;;;;4916486;29;20479;-71
2023/08/03 09:51:30;;;;;;;1.27;1.23;;;20.10;99.90;;;;;;4900508;29;20870;-69
2023/08/03 09:54:04;;;;;;;0.90;0.90;;;20.20;99.90;;;;;;4897342;29;20481;-70
2023/08/03 09:56:33;;;;;;;1.03;1.03;;;20.30;99.90;;;;;;4895937;29;20566;-69
2023/08/03 09:59:04;;;;;;;1.00;1.00;;;20.50;99.90;;;;;;4890266;29;20458;-71
2023/08/03 10:01:33;;;;;;;1.00;1.00;;;20.50;99.90;;;;;;4895598;29;21007;-69
2023/08/03 10:04:04;;;;;;;0.90;0.90;;;20.50;99.90;;;;;;4897440;29;20470;-69
2023/08/03 10:06:34;;;;;;;0.70;0.70;;;20.50;99.90;;;;;;4905439;29;20865;-69
2023/08/03 10:09:04;;;;;;;0.87;0.87;;;20.50;99.90;;;;;;4898030;29;21036;-69
2023/08/03 10:11:35;;;;;;;0.93;0.93;;;20.50;99.90;;;;;;4895092;29;20498;-68
2023/08/03 10:14:05;;;;;;;1.17;0.73;;;20.60;99.90;;;;;;4899714;29;20465;-69
2023/08/03 10:16:33;;;;;;;1.17;1.17;;;20.70;99.90;;;;;;4906686;29;20964;-70
2023/08/03 10:19:01;;;;;;;1.80;1.10;;;20.70;99.90;;;;;;4893577;29;21005;-69
2023/08/03 10:21:32;;;;;;;0.90;0.90;;;20.70;99.90;;;;;;4891030;29;20536;-70
2023/08/03 10:24:17;;;;;;;0.80;0.80;;;20.80;99.90;;;;;;4896428;29;20475;-70
2023/08/03 10:26:45;;;;;;;1.17;1.17;;;20.90;99.90;;;;;;4894952;29;20949;-71
2023/08/03 10:29:11;;;;;;;0.90;0.90;;;21.00;99.90;;;;;;4890519;29;20534;-70
2023/08/03 10:31:54;;;;;;;1.07;1.07;;;21.00;99.90;;;;;;4894332;29;20625;-69
2023/08/03 10:34:25;;;;;;;1.00;0.83;;;21.10;99.90;;;;;;4890985;29;20482;-70
2023/08/03 10:36:53;;;;;;;1.17;1.17;;;21.10;99.90;;;;;;4897493;29;20550;-68
2023/08/03 10:39:51;;;;;;;0.90;0.90;;;21.10;99.90;;;;;;4894971;29;20507;-68
2023/08/03 10:42:29;;;;;;;0.60;0.60;;;21.20;99.90;;;;;;4893551;29;20463;-70
2023/08/03 10:45:16;;;;;;;1.00;1.00;;;21.30;99.90;;;;;;4901377;29;20473;-69
2023/08/03 10:47:44;;;;;;;0.83;0.83;;;21.30;99.90;;;;;;4892856;29;20467;-69
2023/08/03 10:50:10;;;;;;;0.70;0.70;;;21.30;99.90;;;;;;4895128;29;20562;-69
2023/08/03 10:52:37;;;;;;;0.83;0.83;;;21.20;99.90;;;;;;4895980;29;20474;-69
2023/08/03 10:55:24;;;;;;;0.70;0.70;;;21.30;99.90;;;;;;4902095;29;20458;-69
2023/08/03 10:57:51;;;;;;;0.80;0.80;;;21.50;99.90;;;;;;4906308;29;21227;-70
2023/08/03 11:00:18;;;;;;;0.70;0.70;;;21.60;99.90;;;;;;4895316;29;20503;-69
2023/08/03 11:02:46;;;;;;;0.77;0.77;;;21.80;99.90;;;;;;4895920;29;20560;-69
2023/08/03 11:05:13;;;;;;;2.53;0.97;;;21.90;99.90;;;;;;4898967;29;20601;-69
2023/08/03 11:07:41;;;;;;;0.70;0.70;;;21.80;99.90;;;;;;4904338;29;20463;-70
2023/08/03 11:10:10;;;;;;;1.10;1.10;;;21.80;99.90;;;;;;4895862;29;20496;-69
2023/08/03 11:12:37;;;;;;;1.10;1.10;;;21.60;99.90;;;;;;4904959;29;21051;-69
2023/08/03 11:15:06;;;;;;;0.60;0.60;;;21.50;99.90;;;;;;4885649;29;20480;-71
2023/08/03 11:17:34;;;;;;;0.70;0.70;;;21.40;99.90;;;;;;4898099;29;20488;-69
2023/08/03 11:20:03;;;;;;;0.80;0.80;;;21.30;99.90;;;;;;4894713;29;20566;-69
2023/08/03 11:22:31;;;;;;;1.00;1.00;;;21.30;99.90;;;;;;4899400;29;20510;-69
2023/08/03 11:25:00;;;;;;;1.63;0.47;;;21.30;99.90;;;;;;4899434;29;20847;-70
2023/08/03 11:27:27;;;;;;;3.60;0.93;;;21.00;99.90;;;;;;4896339;29;20460;-69
2023/08/03 11:29:56;;;;;;;0.93;0.93;;;20.90;99.90;;;;;;4894170;29;20562;-68
2023/08/03 11:32:23;;;;;;;0.60;0.60;;;20.80;99.90;;;;;;4894546;29;20466;-69
2023/08/03 11:34:50;;;;;;;0.80;0.80;;;20.80;99.90;;;;;;4894083;29;20474;-69
2023/08/03 11:37:20;;;;;;;1.10;1.10;;;20.70;99.90;;;;;;4896387;29;20485;-69
2023/08/03 11:39:47;;;;;;;0.70;0.70;;;20.60;99.90;;;;;;4893222;29;20485;-69
2023/08/03 11:42:14;;;;;;;0.73;0.73;;;20.50;99.90;;;;;;4896371;29;20541;-70
2023/08/03 11:44:45;;;;;;;0.60;0.60;;;20.30;99.90;;;;;;4879574;29;20483;-69
2023/08/03 11:47:12;;;;;;;0.60;0.60;;;20.30;99.90;;;;;;4876961;29;20473;-69
2023/08/03 11:49:39;;;;;;;1.33;0.80;;;20.40;99.90;;;;;;4889081;29;20472;-69
2023/08/03 11:52:06;;;;;;;0.63;0.63;;;20.50;99.90;;;;;;4893657;29;21001;-70
2023/08/03 11:54:37;;;;;;;0.60;0.60;;;20.40;99.90;;;;;;4877314;29;20471;-69
2023/08/03 11:59:50;;;;;;;0.67;0.67;;;20.10;99.90;;;;;;4882451;29;20479;-69
2023/08/03 12:02:17;;;;;;;0.60;0.60;;;19.90;99.90;;;;;;4890815;29;20471;-71
2023/08/03 12:04:44;;;;;;;0.60;0.60;;;19.70;99.90;;;;;;4901620;29;20476;-68
2023/08/03 12:07:10;;;;;;;0.83;0.83;;;19.70;99.90;;;;;;4902729;29;20816;-68
2023/08/03 12:09:40;;;;;;;0.70;0.70;;;19.80;99.90;;;;;;4909337;29;20468;-71
2023/08/03 12:12:08;;;;;;;0.50;0.50;;;19.70;99.90;;;;;;4893867;29;20816;-68
2023/08/03 12:14:35;;;;;;;0.60;0.60;;;19.70;99.90;;;;;;4895324;29;20467;-69
2023/08/03 12:17:02;;;;;;;0.47;0.47;;;19.50;99.90;;;;;;4895293;29;20463;-68
2023/08/03 12:19:32;;;;;;;0.40;0.40;;;19.30;99.90;;;;;;4887352;29;20476;-69
2023/08/03 12:22:00;;;;;;;0.40;0.40;;;19.20;99.90;;;;;;4892219;29;20576;-68
2023/08/03 12:24:26;;;;;;;0.40;0.40;;;19.00;99.90;;;;;;4914253;29;20494;-68
2023/08/03 12:26:54;;;;;;;0.50;0.50;;;19.00;99.90;;;;;;4914381;29;20458;-70
2023/08/03 12:29:21;;;;;;;0.67;0.67;;;18.90;99.90;;;;;;4899527;29;20979;-69
2023/08/03 12:31:48;;;;;;;0.40;0.40;;;19.00;99.90;;;;;;4906444;29;20497;-68
2023/08/03 12:34:15;;;;;;;0.30;0.30;;;19.20;99.90;;;;;;4913731;29;20472;-70
2023/08/03 12:36:42;;;;;;;0.67;0.67;;;19.40;99.90;;;;;;4914282;29;20853;-68
2023/08/03 12:39:09;;;;;;;1.17;0.80;;;19.60;99.90;;;;;;4914224;29;20519;-68
2023/08/03 12:41:36;;;;;;;0.63;0.63;;;19.70;99.90;;;;;;4896191;29;21379;-69
2023/08/03 12:44:05;;;;;;;0.87;0.87;;;19.80;99.90;;;;;;4901784;29;20534;-69
2023/08/03 12:46:31;;;;;;;0.67;0.67;;;19.90;99.90;;;;;;4912520;29;20996;-69
2023/08/03 12:48:59;;;;;;;1.00;1.00;;;19.80;99.90;;;;;;4914570;29;20883;-69
2023/08/03 12:51:25;;;;;;;0.70;0.70;;;19.70;99.90;;;;;;4898176;29;20587;-69
2023/08/03 12:53:52;;;;;;;1.33;1.00;;;19.30;99.90;;;;;;4895261;29;20475;-69
2023/08/03 12:56:19;;;;;;;0.77;0.70;;;18.90;99.90;;;;;;4895602;29;20463;-69
2023/08/03 12:58:45;;;;;;;1.60;0.70;;;18.70;99.90;;;;;;4893979;29;20853;-68
2023/08/03 13:01:14;;;;;;;0.67;0.67;;;18.60;99.90;;;;;;4898644;29;20921;-69
2023/08/03 13:03:40;;;;;;;0.50;0.50;;;18.50;99.90;;;;;;4904317;29;20485;-68
2023/08/03 13:06:09;;;;;;;0.73;0.73;;;18.50;99.90;;;;;;4894536;29;20478;-68
2023/08/03 13:08:35;;;;;;;0.63;0.63;;;18.50;99.90;;;;;;4904669;29;20509;-68
2023/08/03 13:11:02;;;;;;;0.47;0.47;;;18.40;99.90;;;;;;4895975;29;20502;-69
2023/08/03 13:13:29;;;;;;;0.40;0.40;;;18.40;99.90;;;;;;4892521;29;20523;-68
2023/08/03 13:15:56;;;;;;;0.40;0.40;;;18.30;99.90;;;;;;4898015;29;20477;-71
2023/08/03 13:18:24;;;;;;;0.20;0.20;;;18.30;99.90;;;;;;4891901;29;20680;-69
2023/08/03 13:20:50;;;;;;;1.43;0.87;;;18.40;99.90;;;;;;4896524;29;20503;-70
2023/08/03 13:23:17;;;;;;;0.57;0.57;;;18.70;99.90;;;;;;4894227;29;20527;-68
2023/08/03 13:25:44;;;;;;;0.40;0.40;;;18.90;99.90;;;;;;4898819;29;20481;-70
2023/08/03 13:28:11;;;;;;;0.20;0.20;;;19.00;99.90;;;;;;4901002;29;20474;-70
2023/08/03 13:30:37;;;;;;;0.30;0.30;;;19.30;99.90;;;;;;4895524;29;20497;-68
2023/08/03 13:33:04;;;;;;;0.40;0.40;;;19.50;99.90;;;;;;4902803;29;20459;-68
2023/08/03 13:35:32;;;;;;;0.57;0.57;;;19.60;99.90;;;;;;4875372;29;20524;-69
2023/08/03 13:37:58;;;;;;;1.00;1.00;;;19.70;99.90;;;;;;4880356;29;20567;-68
2023/08/03 13:40:25;;;;;;;0.40;0.40;;;19.80;99.90;;;;;;4895418;29;20853;-68
2023/08/03 13:42:52;;;;;;;1.03;0.60;;;19.90;99.90;;;;;;4894620;29;20496;-70
2023/08/03 13:45:19;;;;;;;0.70;0.70;;;20.10;99.90;;;;;;4890480;29;20481;-69
2023/08/03 13:47:45;;;;;;;0.77;0.77;;;20.10;99.90;;;;;;4892241;29;20472;-68
2023/08/03 13:50:12;;;;;;;2.83;0.53;;;20.30;99.90;;;;;;4908030;29;20888;-68
2023/08/03 13:52:40;;;;;;;0.50;0.50;;;20.40;99.90;;;;;;4905972;29;20478;-68
2023/08/03 13:55:07;;;;;;;0.67;0.67;;;20.60;99.90;;;;;;4906762;29;20520;-69
2023/08/03 13:57:34;;;;;;;0.60;0.60;;;20.70;99.90;;;;;;4901181;29;20473;-68
2023/08/03 14:00:01;;;;;;;0.40;0.40;;;20.70;99.90;;;;;;4891358;29;20492;-70
2023/08/03 14:02:28;;;;;;;1.63;1.20;;;20.70;99.90;;;;;;4897517;29;20467;-70
2023/08/03 14:04:54;;;;;;;0.50;0.50;;;20.60;99.90;;;;;;4902415;29;20598;-69
2023/08/03 14:07:21;;;;;;;0.50;0.50;;;20.60;99.90;;;;;;4900549;29;20492;-68
2023/08/03 14:09:49;;;;;;;0.20;0.20;;;20.70;99.90;;;;;;4903852;29;20485;-69
2023/08/03 14:12:16;;;;;;;0.53;0.53;;;20.80;99.90;;;;;;4903108;29;20485;-69
2023/08/03 14:14:43;;;;;;;0.60;0.60;;;20.90;99.90;;;;;;4909936;29;20513;-67
2023/08/03 14:17:10;;;;;;;0.30;0.30;;;21.00;99.90;;;;;;4890900;29;20489;-67
2023/08/03 14:19:37;;;;;;;0.67;0.67;;;21.00;99.90;;;;;;4894930;29;21120;-67
2023/08/03 14:22:03;;;;;;;0.43;0.43;;;21.00;99.90;;;;;;4905351;29;20585;-67
2023/08/03 14:24:30;;;;;;;0.33;0.33;;;20.80;99.90;;;;;;4901547;29;20554;-68
2023/08/03 14:26:58;;;;;;;0.63;0.63;;;20.70;99.90;;;;;;4905376;29;20469;-67
2023/08/03 14:29:25;;;;;;;0.53;0.53;;;20.70;99.90;;;;;;4904864;29;20530;-68
2023/08/03 14:31:51;;;;;;;0.43;0.43;;;20.70;99.90;;;;;;4897344;29;21008;-67
2023/08/03 14:34:18;;;;;;;0.47;0.47;;;20.60;99.90;;;;;;4901926;29;20983;-67
2023/08/03 14:36:46;;;;;;;0.40;0.40;;;20.60;99.90;;;;;;4901523;29;20469;-70
2023/08/03 14:39:13;;;;;;;0.47;0.47;;;20.70;99.90;;;;;;4902363;29;20507;-68
2023/08/03 14:41:40;;;;;;;0.70;0.70;;;20.70;99.90;;;;;;4908481;29;20485;-67
2023/08/03 14:44:08;;;;;;;0.90;0.90;;;20.80;99.90;;;;;;4912780;29;20469;-67
2023/08/03 14:46:34;;;;;;;0.53;0.53;;;20.80;99.90;;;;;;4907160;29;20602;-68
2023/08/03 14:49:01;;;;;;;0.60;0.60;;;20.80;99.90;;;;;;4889656;29;20986;-69
2023/08/03 14:51:28;;;;;;;0.60;0.60;;;20.90;99.90;;;;;;4891231;29;20494;-68
2023/08/03 14:53:55;;;;;;;0.70;0.70;;;21.00;99.90;;;;;;4898488;29;20566;-68
2023/08/03 14:56:21;;;;;;;0.43;0.43;;;21.00;99.90;;;;;;4891341;29;20470;-71
2023/08/03 14:58:48;;;;;;;0.73;0.60;;;21.00;99.90;;;;;;4889027;29;20506;-68
2023/08/03 15:01:16;;;;;;;0.60;0.47;;;21.00;99.90;;;;;;4894196;29;20508;-68
2023/08/03 15:03:43;;;;;;;0.40;0.40;;;21.10;99.90;;;;;;4893751;29;20471;-69
2023/08/03 15:06:13;;;;;;;0.33;0.33;;;21.10;99.90;;;;;;4892806;29;20864;-69
2023/08/03 15:08:40;;;;;;;0.40;0.40;;;21.10;99.90;;;;;;4905314;29;20465;-69
2023/08/03 15:11:07;;;;;;;0.30;0.30;;;21.00;99.90;;;;;;4900153;29;20496;-69
2023/08/03 15:13:33;;;;;;;0.57;0.57;;;20.90;99.90;;;;;;4892932;29;20474;-68
2023/08/03 15:16:14;;;;;;;0.40;0.40;;;20.80;99.90;;;;;;4895796;29;21003;-68
2023/08/03 15:18:42;;;;;;;0.57;0.57;;;20.80;99.90;;;;;;4895949;29;20516;-69
2023/08/03 15:21:17;;;;;;;0.87;0.43;;;20.90;99.90;;;;;;4897883;29;20917;-68
2023/08/03 15:23:45;;;;;;;0.40;0.40;;;21.00;99.90;;;;;;4900523;29;20506;-68
2023/08/03 15:26:12;;;;;;;0.70;0.70;;;20.90;99.90;;;;;;4910022;29;20509;-68
2023/08/03 15:28:39;;;;;;;0.70;0.70;;;20.90;99.90;;;;;;4897872;29;20943;-70
2023/08/03 15:31:06;;;;;;;0.73;0.57;;;20.80;99.90;;;;;;4888754;29;20502;-70
2023/08/03 15:33:33;;;;;;;0.40;0.40;;;20.70;99.90;;;;;;4896110;29;20471;-70
2023/08/03 15:36:04;;;;;;;0.87;0.63;;;20.60;99.90;;;;;;4904036;29;20545;-70
2023/08/03 15:38:31;;;;;;;0.67;0.67;;;20.40;99.90;;;;;;4880755;29;20498;-70
2023/08/03 15:40:58;;;;;;;1.10;1.00;;;20.30;99.90;;;;;;4895126;29;20492;-69
2023/08/03 15:43:25;;;;;;;1.30;1.20;;;20.00;99.90;;;;;;4914418;29;20826;-71
2023/08/03 15:45:51;;;;;;;1.17;0.80;;;20.00;99.90;;;;;;4913802;29;20465;-71
2023/08/03 15:48:18;;;;;;;0.70;0.70;;;19.80;99.90;;;;;;4891026;29;20989;-70
2023/08/03 15:50:46;;;;;;;0.73;0.73;;;19.80;99.90;;;;;;4896538;29;20922;-71
2023/08/03 15:53:14;;;;;;;0.73;0.73;;;20.00;99.90;;;;;;4901789;29;20937;-70
2023/08/03 15:55:41;;;;;;;9.00;1.10;;;20.10;99.90;;;;;;4906323;29;20467;-70
2023/08/03 15:58:08;;;;;;;1.07;1.07;;;20.20;99.90;;;;;;4910536;29;20531;-70
2023/08/03 16:00:35;;;;;;;1.10;1.03;;;20.30;99.90;;;;;;4892280;29;20928;-70
2023/08/03 16:03:04;;;;;;;0.93;0.90;;;20.40;99.90;;;;;;4896058;29;21035;-71
2023/08/03 16:05:34;;;;;;;0.60;0.60;;;20.30;99.90;;;;;;4893253;29;20532;-71
2023/08/03 16:08:00;;;;;;;0.90;0.90;;;20.30;99.90;;;;;;4902872;29;20898;-70
2023/08/03 16:10:32;;;;;;;0.93;0.93;;;20.30;99.90;;;;;;4902205;29;20802;-69
2023/08/03 16:12:59;;;;;;;0.97;0.97;;;20.40;99.90;;;;;;4895645;29;20473;-68
2023/08/03 16:15:35;;;;;;;0.43;0.43;;;20.50;99.90;;;;;;4895556;29;20477;-70
2023/08/03 16:18:02;;;;;;;0.80;0.80;;;20.60;99.90;;;;;;4891396;29;20848;-68
2023/08/03 16:20:29;;;;;;;1.10;1.00;;;20.70;99.90;;;;;;4893352;29;20493;-70
2023/08/03 16:22:56;;;;;;;0.60;0.60;;;20.70;99.90;;;;;;4903578;29;20908;-71
2023/08/03 16:25:23;;;;;;;0.73;0.73;;;20.60;99.90;;;;;;4895720;29;20468;-70
2023/08/03 16:27:51;;;;;;;0.43;0.43;;;20.50;99.90;;;;;;4895759;29;20473;-70
2023/08/03 16:30:18;;;;;;;0.77;0.77;;;20.60;99.90;;;;;;4893039;29;20888;-70
2023/08/03 16:32:45;;;;;;;3.13;0.93;;;20.60;99.90;;;;;;4891598;29;20489;-70
2023/08/03 16:35:12;;;;;;;0.50;0.50;;;20.60;99.90;;;;;;4895398;29;20473;-70
2023/08/03 16:37:39;;;;;;;0.80;0.80;;;20.40;99.90;;;;;;4899104;29;20468;-71
2023/08/03 16:40:06;;;;;;;3.10;0.70;;;20.30;99.90;;;;;;4902437;29;20507;-69
2023/08/03 16:42:33;;;;;;;0.60;0.60;;;20.20;99.90;;;;;;4894007;29;20471;-71
2023/08/03 16:45:03;;;;;;;0.47;0.47;;;20.10;99.90;;;;;;4902177;29;20475;-69
2023/08/03 16:47:29;;;;;;;0.53;0.53;;;20.00;99.90;;;;;;4912661;29;20468;-71
2023/08/03 16:49:56;;;;;;;0.73;0.73;;;19.90;99.90;;;;;;4904694;29;20585;-71
2023/08/03 16:52:23;;;;;;;0.83;0.83;;;19.90;99.90;;;;;;4910089;29;20469;-71
2023/08/03 16:54:50;;;;;;;3.80;0.90;;;19.80;99.90;;;;;;4902720;29;20468;-71